sensor_id;sensor_type;location;lat;lon;timestamp;temperature;humidity
35559;DHT22;21661;50.794;-1.066;2023-01-09T00:00:26;8.70;99.90
35559;DHT22;21661;50.794;-1.066;2023-01-09T00:02:52;8.70;99.90
35559;DHT22;21661;50.794;-1.066;2023-01-09T00:05:18;8.70;99.90
35559;DHT22;21661;50.794;-1.066;2023-01-09T00:07:45;8.70;99.90
35559;DHT22;21661;50.794;-1.066;2023-01-09T00:10:11;8.70;99.90
35559;DHT22;21661;50.794;-1.066;2023-01-09T00:12:37;8.70;99.90
35559;DHT22;21661;50.794;-1.066;2023-01-09T00:15:04;8.70;99.90
35559;DHT22;21661;50.794;-1.066;2023-01-09T00:17:29;8.60;99.90
35559;DHT22;21661;50.794;-1.066;2023-01-09T00:19:55;8.60;99.90
35559;DHT22;21661;50.794;-1.066;2023-01-09T00:22:20;8.60;99.90
35559;DHT22;21661;50.794;-1.066;2023-01-09T00:24:46;8.50;99.90
35559;DHT22;21661;50.794;-1.066;2023-01-09T00:27:12;8.50;99.90
35559;DHT22;21661;50.794;-1.066;2023-01-09T00:29:39;8.50;99.90
35559;DHT22;21661;50.794;-1.066;2023-01-09T00:32:07;8.40;99.90
35559;DHT22;21661;50.794;-1.066;2023-01-09T00:34:35;8.40;99.90
35559;DHT22;21661;50.794;-1.066;2023-01-09T00:37:02;8.40;99.90
35559;DHT22;21661;50.794;-1.066;2023-01-09T00:39:28;8.40;99.90
35559;DHT22;21661;50.794;-1.066;2023-01-09T00:41:55;8.30;99.90
35559;DHT22;21661;50.794;-1.066;2023-01-09T00:44:29;8.40;99.90
35559;DHT22;21661;50.794;-1.066;2023-01-09T00:47:03;8.40;99.90
35559;DHT22;21661;50.794;-1.066;2023-01-09T00:49:33;8.30;99.90
35559;DHT22;21661;50.794;-1.066;2023-01-09T00:52:01;8.30;99.90
35559;DHT22;21661;50.794;-1.066;2023-01-09T00:54:27;8.30;99.90
35559;DHT22;21661;50.794;-1.066;2023-01-09T00:56:55;8.30;99.90
35559;DHT22;21661;50.794;-1.066;2023-01-09T00:59:21;8.30;99.90
35559;DHT22;21661;50.794;-1.066;2023-01-09T01:01:47;8.30;99.90
35559;DHT22;21661;50.794;-1.066;2023-01-09T01:04:13;8.30;99.90
35559;DHT22;21661;50.794;-1.066;2023-01-09T01:06:57;8.30;99.90
35559;DHT22;21661;50.794;-1.066;2023-01-09T01:09:41;8.20;99.90
35559;DHT22;21661;50.794;-1.066;2023-01-09T01:12:07;8.20;99.90
35559;DHT22;21661;50.794;-1.066;2023-01-09T01:14:34;8.10;99.90
35559;DHT22;21661;50.794;-1.066;2023-01-09T01:17:00;8.10;99.90
35559;DHT22;21661;50.794;-1.066;2023-01-09T01:19:26;8.20;99.90
35559;DHT22;21661;50.794;-1.066;2023-01-09T01:21:51;8.10;99.90
35559;DHT22;21661;50.794;-1.066;2023-01-09T01:24:17;8.10;99.90
35559;DHT22;21661;50.794;-1.066;2023-01-09T01:26:45;8.10;99.90
35559;DHT22;21661;50.794;-1.066;2023-01-09T01:29:10;8.10;99.90
35559;DHT22;21661;50.794;-1.066;2023-01-09T01:31:36;8.20;99.90
35559;DHT22;21661;50.794;-1.066;2023-01-09T01:34:02;8.20;99.90
35559;DHT22;21661;50.794;-1.066;2023-01-09T01:36:28;8.10;99.90
35559;DHT22;21661;50.794;-1.066;2023-01-09T01:38:53;8.10;99.90
35559;DHT22;21661;50.794;-1.066;2023-01-09T01:41:19;8.10;99.90
35559;DHT22;21661;50.794;-1.066;2023-01-09T01:44:00;8.10;99.90
35559;DHT22;21661;50.794;-1.066;2023-01-09T01:46:28;8.10;99.90
35559;DHT22;21661;50.794;-1.066;2023-01-09T01:49:11;8.10;99.90
35559;DHT22;21661;50.794;-1.066;2023-01-09T01:51:44;8.10;99.90
35559;DHT22;21661;50.794;-1.066;2023-01-09T01:54:15;8.10;99.90
35559;DHT22;21661;50.794;-1.066;2023-01-09T01:56:45;8.10;99.90
35559;DHT22;21661;50.794;-1.066;2023-01-09T01:59:23;8.10;99.90
35559;DHT22;21661;50.794;-1.066;2023-01-09T02:01:52;8.10;99.90
35559;DHT22;21661;50.794;-1.066;2023-01-09T02:04:18;8.10;99.90
35559;DHT22;21661;50.794;-1.066;2023-01-09T02:06:47;8.10;99.90
35559;DHT22;21661;50.794;-1.066;2023-01-09T02:09:14;8.10;99.90
35559;DHT22;21661;50.794;-1.066;2023-01-09T02:11:46;8.00;99.90
35559;DHT22;21661;50.794;-1.066;2023-01-09T02:14:13;8.00;99.90
35559;DHT22;21661;50.794;-1.066;2023-01-09T02:28:28;8.10;99.90
35559;DHT22;21661;50.794;-1.066;2023-01-09T02:31:14;8.10;99.90
35559;DHT22;21661;50.794;-1.066;2023-01-09T02:44:27;8.30;99.90
35559;DHT22;21661;50.794;-1.066;2023-01-09T02:49:25;8.30;99.90
35559;DHT22;21661;50.794;-1.066;2023-01-09T02:51:55;8.30;99.90
35559;DHT22;21661;50.794;-1.066;2023-01-09T03:06:32;8.30;99.90
35559;DHT22;21661;50.794;-1.066;2023-01-09T03:09:11;8.30;99.90
35559;DHT22;21661;50.794;-1.066;2023-01-09T03:11:41;8.30;99.90
35559;DHT22;21661;50.794;-1.066;2023-01-09T03:14:15;8.30;99.90
35559;DHT22;21661;50.794;-1.066;2023-01-09T03:16:45;8.30;99.90
35559;DHT22;21661;50.794;-1.066;2023-01-09T03:19:15;8.30;99.90
35559;DHT22;21661;50.794;-1.066;2023-01-09T03:21:42;8.30;99.90
35559;DHT22;21661;50.794;-1.066;2023-01-09T03:24:09;8.30;99.90
35559;DHT22;21661;50.794;-1.066;2023-01-09T03:26:35;8.40;99.90
35559;DHT22;21661;50.794;-1.066;2023-01-09T03:29:01;8.30;99.90
35559;DHT22;21661;50.794;-1.066;2023-01-09T03:31:26;8.30;99.90
35559;DHT22;21661;50.794;-1.066;2023-01-09T03:33:52;8.30;99.90
35559;DHT22;21661;50.794;-1.066;2023-01-09T03:36:19;8.30;99.90
35559;DHT22;21661;50.794;-1.066;2023-01-09T03:38:45;8.40;99.90
35559;DHT22;21661;50.794;-1.066;2023-01-09T03:41:10;8.30;99.90
35559;DHT22;21661;50.794;-1.066;2023-01-09T03:43:36;8.40;99.90
35559;DHT22;21661;50.794;-1.066;2023-01-09T03:46:02;8.30;99.90
35559;DHT22;21661;50.794;-1.066;2023-01-09T03:48:28;8.30;99.90
35559;DHT22;21661;50.794;-1.066;2023-01-09T03:50:55;8.30;99.90
35559;DHT22;21661;50.794;-1.066;2023-01-09T03:53:22;8.30;99.90
35559;DHT22;21661;50.794;-1.066;2023-01-09T03:55:50;8.30;99.90
35559;DHT22;21661;50.794;-1.066;2023-01-09T03:58:17;8.30;99.90
35559;DHT22;21661;50.794;-1.066;2023-01-09T04:00:44;8.30;99.90
35559;DHT22;21661;50.794;-1.066;2023-01-09T04:03:10;8.30;99.90
35559;DHT22;21661;50.794;-1.066;2023-01-09T04:05:36;8.30;99.90
35559;DHT22;21661;50.794;-1.066;2023-01-09T04:08:02;8.30;99.90
35559;DHT22;21661;50.794;-1.066;2023-01-09T04:10:28;8.30;99.90
35559;DHT22;21661;50.794;-1.066;2023-01-09T04:12:54;8.30;99.90
35559;DHT22;21661;50.794;-1.066;2023-01-09T04:15:19;8.20;99.90
35559;DHT22;21661;50.794;-1.066;2023-01-09T04:17:45;8.20;99.90
35559;DHT22;21661;50.794;-1.066;2023-01-09T04:20:11;8.20;99.90
35559;DHT22;21661;50.794;-1.066;2023-01-09T04:22:37;8.20;99.90
35559;DHT22;21661;50.794;-1.066;2023-01-09T04:25:03;8.20;99.90
35559;DHT22;21661;50.794;-1.066;2023-01-09T04:27:29;8.20;99.90
35559;DHT22;21661;50.794;-1.066;2023-01-09T04:29:54;8.20;99.90
35559;DHT22;21661;50.794;-1.066;2023-01-09T04:32:20;8.20;99.90
35559;DHT22;21661;50.794;-1.066;2023-01-09T04:34:46;8.10;99.90
35559;DHT22;21661;50.794;-1.066;2023-01-09T04:37:11;8.10;99.90
35559;DHT22;21661;50.794;-1.066;2023-01-09T04:39:37;8.20;99.90
35559;DHT22;21661;50.794;-1.066;2023-01-09T04:42:04;8.10;99.90
35559;DHT22;21661;50.794;-1.066;2023-01-09T04:44:30;8.10;99.90
35559;DHT22;21661;50.794;-1.066;2023-01-09T04:46:56;8.20;99.90
35559;DHT22;21661;50.794;-1.066;2023-01-09T04:49:23;8.10;99.90
35559;DHT22;21661;50.794;-1.066;2023-01-09T04:51:49;8.10;99.90
35559;DHT22;21661;50.794;-1.066;2023-01-09T04:54:15;8.10;99.90
35559;DHT22;21661;50.794;-1.066;2023-01-09T04:56:41;8.10;99.90
35559;DHT22;21661;50.794;-1.066;2023-01-09T04:59:07;8.10;99.90
35559;DHT22;21661;50.794;-1.066;2023-01-09T05:01:33;8.10;99.90
35559;DHT22;21661;50.794;-1.066;2023-01-09T05:03:59;8.10;99.90
35559;DHT22;21661;50.794;-1.066;2023-01-09T05:06:25;8.10;99.90
35559;DHT22;21661;50.794;-1.066;2023-01-09T05:08:51;8.10;99.90
35559;DHT22;21661;50.794;-1.066;2023-01-09T05:11:17;8.10;99.90
35559;DHT22;21661;50.794;-1.066;2023-01-09T05:13:42;8.10;99.90
35559;DHT22;21661;50.794;-1.066;2023-01-09T05:16:08;8.10;99.90
35559;DHT22;21661;50.794;-1.066;2023-01-09T05:18:34;8.10;99.90
35559;DHT22;21661;50.794;-1.066;2023-01-09T05:20:59;8.10;99.90
35559;DHT22;21661;50.794;-1.066;2023-01-09T05:23:25;8.00;99.90
35559;DHT22;21661;50.794;-1.066;2023-01-09T05:25:51;8.00;99.90
35559;DHT22;21661;50.794;-1.066;2023-01-09T05:28:16;7.90;99.90
35559;DHT22;21661;50.794;-1.066;2023-01-09T05:30:42;7.90;99.90
35559;DHT22;21661;50.794;-1.066;2023-01-09T05:33:08;7.90;99.90
35559;DHT22;21661;50.794;-1.066;2023-01-09T05:35:33;7.70;99.90
35559;DHT22;21661;50.794;-1.066;2023-01-09T05:37:59;7.70;99.90
35559;DHT22;21661;50.794;-1.066;2023-01-09T05:40:25;7.80;99.90
35559;DHT22;21661;50.794;-1.066;2023-01-09T05:42:50;7.70;99.90
35559;DHT22;21661;50.794;-1.066;2023-01-09T05:45:16;7.60;99.90
35559;DHT22;21661;50.794;-1.066;2023-01-09T05:47:44;7.60;99.90
35559;DHT22;21661;50.794;-1.066;2023-01-09T05:50:10;7.60;99.90
35559;DHT22;21661;50.794;-1.066;2023-01-09T05:52:36;7.60;99.90
35559;DHT22;21661;50.794;-1.066;2023-01-09T05:55:02;7.60;99.90
35559;DHT22;21661;50.794;-1.066;2023-01-09T05:57:27;7.60;99.90
35559;DHT22;21661;50.794;-1.066;2023-01-09T05:59:53;7.60;99.90
35559;DHT22;21661;50.794;-1.066;2023-01-09T06:02:19;7.60;99.90
35559;DHT22;21661;50.794;-1.066;2023-01-09T06:04:45;7.50;99.90
35559;DHT22;21661;50.794;-1.066;2023-01-09T06:07:10;7.60;99.90
35559;DHT22;21661;50.794;-1.066;2023-01-09T06:09:36;7.60;99.90
35559;DHT22;21661;50.794;-1.066;2023-01-09T06:12:02;7.50;99.90
35559;DHT22;21661;50.794;-1.066;2023-01-09T06:14:27;7.50;99.90
35559;DHT22;21661;50.794;-1.066;2023-01-09T06:16:54;7.60;99.90
35559;DHT22;21661;50.794;-1.066;2023-01-09T06:19:19;7.60;99.90
35559;DHT22;21661;50.794;-1.066;2023-01-09T06:21:45;7.50;99.90
35559;DHT22;21661;50.794;-1.066;2023-01-09T06:24:10;7.50;99.90
35559;DHT22;21661;50.794;-1.066;2023-01-09T06:26:36;7.50;99.90
35559;DHT22;21661;50.794;-1.066;2023-01-09T06:29:02;7.50;99.90
35559;DHT22;21661;50.794;-1.066;2023-01-09T06:31:27;7.50;99.90
35559;DHT22;21661;50.794;-1.066;2023-01-09T06:33:53;7.40;99.90
35559;DHT22;21661;50.794;-1.066;2023-01-09T06:36:19;7.60;99.90
35559;DHT22;21661;50.794;-1.066;2023-01-09T06:38:45;7.50;99.90
35559;DHT22;21661;50.794;-1.066;2023-01-09T06:41:11;7.60;99.90
35559;DHT22;21661;50.794;-1.066;2023-01-09T06:43:36;7.60;99.90
35559;DHT22;21661;50.794;-1.066;2023-01-09T06:46:02;7.60;99.90
35559;DHT22;21661;50.794;-1.066;2023-01-09T06:48:30;7.60;99.90
35559;DHT22;21661;50.794;-1.066;2023-01-09T06:50:56;7.70;99.90
35559;DHT22;21661;50.794;-1.066;2023-01-09T06:53:21;7.70;99.90
35559;DHT22;21661;50.794;-1.066;2023-01-09T06:55:47;7.70;99.90
35559;DHT22;21661;50.794;-1.066;2023-01-09T06:58:13;7.60;99.90
35559;DHT22;21661;50.794;-1.066;2023-01-09T07:00:38;7.60;99.90
35559;DHT22;21661;50.794;-1.066;2023-01-09T07:03:04;7.70;99.90
35559;DHT22;21661;50.794;-1.066;2023-01-09T07:05:31;7.70;99.90
35559;DHT22;21661;50.794;-1.066;2023-01-09T07:07:57;7.70;99.90
35559;DHT22;21661;50.794;-1.066;2023-01-09T07:10:23;7.60;99.90
35559;DHT22;21661;50.794;-1.066;2023-01-09T07:12:48;7.70;99.90
35559;DHT22;21661;50.794;-1.066;2023-01-09T07:15:14;7.70;99.90
35559;DHT22;21661;50.794;-1.066;2023-01-09T07:17:40;7.70;99.90
35559;DHT22;21661;50.794;-1.066;2023-01-09T07:20:06;7.80;99.90
35559;DHT22;21661;50.794;-1.066;2023-01-09T07:22:32;7.80;99.90
35559;DHT22;21661;50.794;-1.066;2023-01-09T07:24:57;7.80;99.90
35559;DHT22;21661;50.794;-1.066;2023-01-09T07:27:23;7.80;99.90
35559;DHT22;21661;50.794;-1.066;2023-01-09T07:29:48;7.80;99.90
35559;DHT22;21661;50.794;-1.066;2023-01-09T07:32:15;7.80;99.90
35559;DHT22;21661;50.794;-1.066;2023-01-09T07:34:41;7.90;99.90
35559;DHT22;21661;50.794;-1.066;2023-01-09T07:37:07;7.90;99.90
35559;DHT22;21661;50.794;-1.066;2023-01-09T07:39:32;7.90;99.90
35559;DHT22;21661;50.794;-1.066;2023-01-09T07:41:58;7.90;99.90
35559;DHT22;21661;50.794;-1.066;2023-01-09T07:44:24;7.90;99.90
35559;DHT22;21661;50.794;-1.066;2023-01-09T07:46:50;7.90;99.90
35559;DHT22;21661;50.794;-1.066;2023-01-09T07:49:15;7.90;99.90
35559;DHT22;21661;50.794;-1.066;2023-01-09T07:51:41;7.90;99.90
35559;DHT22;21661;50.794;-1.066;2023-01-09T07:54:10;7.90;99.90
35559;DHT22;21661;50.794;-1.066;2023-01-09T07:56:38;7.90;99.90
35559;DHT22;21661;50.794;-1.066;2023-01-09T07:59:03;8.00;99.90
35559;DHT22;21661;50.794;-1.066;2023-01-09T08:01:29;7.90;99.90
35559;DHT22;21661;50.794;-1.066;2023-01-09T08:03:55;7.90;99.90
35559;DHT22;21661;50.794;-1.066;2023-01-09T08:06:21;7.90;99.90
35559;DHT22;21661;50.794;-1.066;2023-01-09T08:08:46;7.90;99.90
35559;DHT22;21661;50.794;-1.066;2023-01-09T08:11:12;7.80;99.90
35559;DHT22;21661;50.794;-1.066;2023-01-09T08:13:37;7.80;99.90
35559;DHT22;21661;50.794;-1.066;2023-01-09T08:16:03;7.80;99.90
35559;DHT22;21661;50.794;-1.066;2023-01-09T08:18:29;7.80;99.90
35559;DHT22;21661;50.794;-1.066;2023-01-09T08:20:54;7.80;99.90
35559;DHT22;21661;50.794;-1.066;2023-01-09T08:23:20;7.80;99.90
35559;DHT22;21661;50.794;-1.066;2023-01-09T08:25:46;7.80;99.90
35559;DHT22;21661;50.794;-1.066;2023-01-09T08:28:11;7.80;99.90
35559;DHT22;21661;50.794;-1.066;2023-01-09T08:30:37;7.80;99.90
35559;DHT22;21661;50.794;-1.066;2023-01-09T08:33:03;7.80;99.90
35559;DHT22;21661;50.794;-1.066;2023-01-09T08:35:28;7.90;99.90
35559;DHT22;21661;50.794;-1.066;2023-01-09T08:37:54;7.80;99.90
35559;DHT22;21661;50.794;-1.066;2023-01-09T08:40:20;7.90;99.90
35559;DHT22;21661;50.794;-1.066;2023-01-09T08:42:45;7.90;99.90
35559;DHT22;21661;50.794;-1.066;2023-01-09T08:45:30;7.90;99.90
35559;DHT22;21661;50.794;-1.066;2023-01-09T08:48:15;7.90;99.90
35559;DHT22;21661;50.794;-1.066;2023-01-09T08:50:41;7.90;99.90
35559;DHT22;21661;50.794;-1.066;2023-01-09T08:53:08;7.90;99.90
35559;DHT22;21661;50.794;-1.066;2023-01-09T08:55:34;7.90;99.90
35559;DHT22;21661;50.794;-1.066;2023-01-09T08:58:00;7.80;99.90
35559;DHT22;21661;50.794;-1.066;2023-01-09T09:00:25;7.90;99.90
35559;DHT22;21661;50.794;-1.066;2023-01-09T09:02:56;7.90;99.90
35559;DHT22;21661;50.794;-1.066;2023-01-09T09:05:23;7.80;99.90
35559;DHT22;21661;50.794;-1.066;2023-01-09T09:07:50;7.90;99.90
35559;DHT22;21661;50.794;-1.066;2023-01-09T09:10:16;7.90;99.90
35559;DHT22;21661;50.794;-1.066;2023-01-09T09:12:43;7.90;99.90
35559;DHT22;21661;50.794;-1.066;2023-01-09T09:15:10;7.90;99.90
35559;DHT22;21661;50.794;-1.066;2023-01-09T09:17:52;7.80;99.90
35559;DHT22;21661;50.794;-1.066;2023-01-09T09:20:19;7.90;99.90
35559;DHT22;21661;50.794;-1.066;2023-01-09T09:22:46;7.90;99.90
35559;DHT22;21661;50.794;-1.066;2023-01-09T09:25:13;8.00;99.90
35559;DHT22;21661;50.794;-1.066;2023-01-09T09:27:39;8.00;99.90
35559;DHT22;21661;50.794;-1.066;2023-01-09T09:30:05;8.10;99.90
35559;DHT22;21661;50.794;-1.066;2023-01-09T09:32:31;8.10;99.90
35559;DHT22;21661;50.794;-1.066;2023-01-09T09:34:57;8.10;99.90
35559;DHT22;21661;50.794;-1.066;2023-01-09T09:37:23;8.10;99.90
35559;DHT22;21661;50.794;-1.066;2023-01-09T09:39:49;8.10;99.90
35559;DHT22;21661;50.794;-1.066;2023-01-09T09:48:38;8.10;99.90
35559;DHT22;21661;50.794;-1.066;2023-01-09T09:56:31;8.20;99.90
35559;DHT22;21661;50.794;-1.066;2023-01-09T09:59:06;8.20;99.90
35559;DHT22;21661;50.794;-1.066;2023-01-09T10:01:42;8.20;99.90
35559;DHT22;21661;50.794;-1.066;2023-01-09T10:04:15;8.30;99.90
35559;DHT22;21661;50.794;-1.066;2023-01-09T10:06:44;8.30;99.90
35559;DHT22;21661;50.794;-1.066;2023-01-09T10:14:28;8.30;99.90
35559;DHT22;21661;50.794;-1.066;2023-01-09T10:17:22;8.30;99.90
35559;DHT22;21661;50.794;-1.066;2023-01-09T10:25:48;8.30;99.90
35559;DHT22;21661;50.794;-1.066;2023-01-09T10:28:21;8.30;99.90
35559;DHT22;21661;50.794;-1.066;2023-01-09T10:31:03;8.40;99.90
35559;DHT22;21661;50.794;-1.066;2023-01-09T10:39:15;8.50;99.90
35559;DHT22;21661;50.794;-1.066;2023-01-09T10:41:57;8.60;99.90
35559;DHT22;21661;50.794;-1.066;2023-01-09T10:44:34;8.60;99.90
35559;DHT22;21661;50.794;-1.066;2023-01-09T10:47:06;8.70;99.90
35559;DHT22;21661;50.794;-1.066;2023-01-09T10:49:34;8.70;99.90
35559;DHT22;21661;50.794;-1.066;2023-01-09T10:54:40;8.80;99.90
35559;DHT22;21661;50.794;-1.066;2023-01-09T10:57:18;8.70;99.90
35559;DHT22;21661;50.794;-1.066;2023-01-09T10:59:47;8.80;99.90
35559;DHT22;21661;50.794;-1.066;2023-01-09T11:02:30;8.80;99.90
35559;DHT22;21661;50.794;-1.066;2023-01-09T11:04:57;8.90;99.90
35559;DHT22;21661;50.794;-1.066;2023-01-09T11:07:29;8.80;99.90
35559;DHT22;21661;50.794;-1.066;2023-01-09T11:10:10;8.90;99.90
35559;DHT22;21661;50.794;-1.066;2023-01-09T11:12:37;9.00;99.90
35559;DHT22;21661;50.794;-1.066;2023-01-09T11:17:41;9.00;99.90
35559;DHT22;21661;50.794;-1.066;2023-01-09T11:20:26;9.10;99.90
35559;DHT22;21661;50.794;-1.066;2023-01-09T11:22:56;9.10;99.90
35559;DHT22;21661;50.794;-1.066;2023-01-09T11:25:25;9.10;99.90
35559;DHT22;21661;50.794;-1.066;2023-01-09T11:30:26;9.20;99.90
35559;DHT22;21661;50.794;-1.066;2023-01-09T11:32:53;9.20;99.90
35559;DHT22;21661;50.794;-1.066;2023-01-09T11:35:22;9.20;99.90
35559;DHT22;21661;50.794;-1.066;2023-01-09T11:37:58;9.20;99.90
35559;DHT22;21661;50.794;-1.066;2023-01-09T11:40:25;9.10;99.90
35559;DHT22;21661;50.794;-1.066;2023-01-09T11:43:10;9.10;99.90
35559;DHT22;21661;50.794;-1.066;2023-01-09T11:45:51;9.20;99.90
35559;DHT22;21661;50.794;-1.066;2023-01-09T11:48:39;9.20;99.90
35559;DHT22;21661;50.794;-1.066;2023-01-09T11:51:26;9.30;99.90
35559;DHT22;21661;50.794;-1.066;2023-01-09T11:54:04;9.30;99.90
35559;DHT22;21661;50.794;-1.066;2023-01-09T11:56:32;9.40;99.90
35559;DHT22;21661;50.794;-1.066;2023-01-09T11:58:59;9.40;99.90
35559;DHT22;21661;50.794;-1.066;2023-01-09T12:01:56;9.40;99.90
35559;DHT22;21661;50.794;-1.066;2023-01-09T12:04:53;9.50;99.90
35559;DHT22;21661;50.794;-1.066;2023-01-09T12:07:49;9.50;99.90
35559;DHT22;21661;50.794;-1.066;2023-01-09T12:10:39;9.40;99.90
35559;DHT22;21661;50.794;-1.066;2023-01-09T12:16:02;9.50;99.90
35559;DHT22;21661;50.794;-1.066;2023-01-09T12:26:46;9.60;99.90
35559;DHT22;21661;50.794;-1.066;2023-01-09T12:35:20;9.60;99.90
35559;DHT22;21661;50.794;-1.066;2023-01-09T12:40:52;9.60;99.90
35559;DHT22;21661;50.794;-1.066;2023-01-09T12:46:14;9.70;99.90
35559;DHT22;21661;50.794;-1.066;2023-01-09T12:51:32;9.60;99.90
35559;DHT22;21661;50.794;-1.066;2023-01-09T12:54:04;9.60;99.90
35559;DHT22;21661;50.794;-1.066;2023-01-09T12:56:40;9.60;99.90
35559;DHT22;21661;50.794;-1.066;2023-01-09T13:01:45;9.50;99.90
35559;DHT22;21661;50.794;-1.066;2023-01-09T13:04:24;9.50;99.90
35559;DHT22;21661;50.794;-1.066;2023-01-09T13:06:57;9.60;99.90
35559;DHT22;21661;50.794;-1.066;2023-01-09T13:09:28;9.60;99.90
35559;DHT22;21661;50.794;-1.066;2023-01-09T13:17:08;9.70;99.90
35559;DHT22;21661;50.794;-1.066;2023-01-09T13:19:37;9.80;99.90
35559;DHT22;21661;50.794;-1.066;2023-01-09T13:22:05;9.80;99.90
35559;DHT22;21661;50.794;-1.066;2023-01-09T13:27:24;9.90;99.90
35559;DHT22;21661;50.794;-1.066;2023-01-09T13:30:04;9.90;99.90
35559;DHT22;21661;50.794;-1.066;2023-01-09T13:35:23;9.80;99.90
35559;DHT22;21661;50.794;-1.066;2023-01-09T13:37:50;9.80;99.90
35559;DHT22;21661;50.794;-1.066;2023-01-09T13:45:24;9.70;99.90
35559;DHT22;21661;50.794;-1.066;2023-01-09T13:50:36;9.60;99.90
35559;DHT22;21661;50.794;-1.066;2023-01-09T14:06:33;9.40;99.90
35559;DHT22;21661;50.794;-1.066;2023-01-09T14:09:18;9.30;99.90
35559;DHT22;21661;50.794;-1.066;2023-01-09T14:11:45;9.30;99.90
35559;DHT22;21661;50.794;-1.066;2023-01-09T14:14:27;9.30;99.90
35559;DHT22;21661;50.794;-1.066;2023-01-09T14:16:54;9.30;99.90
35559;DHT22;21661;50.794;-1.066;2023-01-09T14:19:32;9.30;99.90
35559;DHT22;21661;50.794;-1.066;2023-01-09T14:21:58;9.20;99.90
35559;DHT22;21661;50.794;-1.066;2023-01-09T14:24:40;9.20;99.90
35559;DHT22;21661;50.794;-1.066;2023-01-09T14:33:04;9.10;99.90
35559;DHT22;21661;50.794;-1.066;2023-01-09T14:36:13;9.10;99.90
35559;DHT22;21661;50.794;-1.066;2023-01-09T14:38:46;9.10;99.90
35559;DHT22;21661;50.794;-1.066;2023-01-09T14:41:43;9.10;99.90
35559;DHT22;21661;50.794;-1.066;2023-01-09T14:44:46;9.10;99.90
35559;DHT22;21661;50.794;-1.066;2023-01-09T14:47:24;9.20;99.90
35559;DHT22;21661;50.794;-1.066;2023-01-09T14:53:01;9.20;99.90
35559;DHT22;21661;50.794;-1.066;2023-01-09T14:55:30;9.30;99.90
35559;DHT22;21661;50.794;-1.066;2023-01-09T14:58:35;9.30;99.90
35559;DHT22;21661;50.794;-1.066;2023-01-09T15:01:02;9.30;99.90
35559;DHT22;21661;50.794;-1.066;2023-01-09T15:03:33;9.30;99.90
35559;DHT22;21661;50.794;-1.066;2023-01-09T15:05:59;9.20;99.90
35559;DHT22;21661;50.794;-1.066;2023-01-09T15:08:26;9.20;99.90
35559;DHT22;21661;50.794;-1.066;2023-01-09T15:10:54;9.20;99.90
35559;DHT22;21661;50.794;-1.066;2023-01-09T15:13:31;9.20;99.90
35559;DHT22;21661;50.794;-1.066;2023-01-09T15:15:59;9.20;99.90
35559;DHT22;21661;50.794;-1.066;2023-01-09T15:18:29;9.20;99.90
35559;DHT22;21661;50.794;-1.066;2023-01-09T15:20:59;9.10;99.90
35559;DHT22;21661;50.794;-1.066;2023-01-09T15:23:27;9.00;99.90
35559;DHT22;21661;50.794;-1.066;2023-01-09T15:25:55;9.00;99.90
35559;DHT22;21661;50.794;-1.066;2023-01-09T15:28:25;9.00;99.90
35559;DHT22;21661;50.794;-1.066;2023-01-09T15:33:22;8.90;99.90
35559;DHT22;21661;50.794;-1.066;2023-01-09T15:35:50;8.90;99.90
35559;DHT22;21661;50.794;-1.066;2023-01-09T15:38:20;8.90;99.90
35559;DHT22;21661;50.794;-1.066;2023-01-09T15:41:05;8.90;99.90
35559;DHT22;21661;50.794;-1.066;2023-01-09T15:43:32;8.90;99.90
35559;DHT22;21661;50.794;-1.066;2023-01-09T15:45:59;8.90;99.90
35559;DHT22;21661;50.794;-1.066;2023-01-09T15:48:27;8.80;99.90
35559;DHT22;21661;50.794;-1.066;2023-01-09T15:51:13;8.80;99.90
35559;DHT22;21661;50.794;-1.066;2023-01-09T15:53:43;8.80;99.90
35559;DHT22;21661;50.794;-1.066;2023-01-09T15:56:20;8.80;99.90
35559;DHT22;21661;50.794;-1.066;2023-01-09T15:58:49;8.80;99.90
35559;DHT22;21661;50.794;-1.066;2023-01-09T16:03:41;8.70;99.90
35559;DHT22;21661;50.794;-1.066;2023-01-09T16:06:22;8.70;99.90
35559;DHT22;21661;50.794;-1.066;2023-01-09T16:08:50;8.70;99.90
35559;DHT22;21661;50.794;-1.066;2023-01-09T16:11:38;8.60;99.90
35559;DHT22;21661;50.794;-1.066;2023-01-09T16:16:39;8.60;99.90
35559;DHT22;21661;50.794;-1.066;2023-01-09T16:19:26;8.60;99.90
35559;DHT22;21661;50.794;-1.066;2023-01-09T16:21:56;8.60;99.90
35559;DHT22;21661;50.794;-1.066;2023-01-09T16:24:40;8.60;99.90
35559;DHT22;21661;50.794;-1.066;2023-01-09T16:29:40;8.50;99.90
35559;DHT22;21661;50.794;-1.066;2023-01-09T16:32:17;8.50;99.90
35559;DHT22;21661;50.794;-1.066;2023-01-09T16:34:43;8.50;99.90
35559;DHT22;21661;50.794;-1.066;2023-01-09T16:37:12;8.40;99.90
35559;DHT22;21661;50.794;-1.066;2023-01-09T16:39:38;8.50;99.90
35559;DHT22;21661;50.794;-1.066;2023-01-09T16:42:07;8.40;99.90
35559;DHT22;21661;50.794;-1.066;2023-01-09T16:44:51;8.40;99.90
35559;DHT22;21661;50.794;-1.066;2023-01-09T16:47:17;8.40;99.90
35559;DHT22;21661;50.794;-1.066;2023-01-09T16:49:43;8.30;99.90
35559;DHT22;21661;50.794;-1.066;2023-01-09T16:52:17;8.40;99.90
35559;DHT22;21661;50.794;-1.066;2023-01-09T16:54:43;8.30;99.90
35559;DHT22;21661;50.794;-1.066;2023-01-09T16:57:15;8.40;99.90
35559;DHT22;21661;50.794;-1.066;2023-01-09T16:59:42;8.40;99.90
35559;DHT22;21661;50.794;-1.066;2023-01-09T17:02:18;8.30;99.90
35559;DHT22;21661;50.794;-1.066;2023-01-09T17:04:45;8.30;99.90
35559;DHT22;21661;50.794;-1.066;2023-01-09T17:07:12;8.30;99.90
35559;DHT22;21661;50.794;-1.066;2023-01-09T17:09:38;8.30;99.90
35559;DHT22;21661;50.794;-1.066;2023-01-09T17:12:04;8.30;99.90
35559;DHT22;21661;50.794;-1.066;2023-01-09T17:14:30;8.30;99.90
35559;DHT22;21661;50.794;-1.066;2023-01-09T17:16:57;8.30;99.90
35559;DHT22;21661;50.794;-1.066;2023-01-09T17:19:22;8.30;99.90
35559;DHT22;21661;50.794;-1.066;2023-01-09T17:21:48;8.20;99.90
35559;DHT22;21661;50.794;-1.066;2023-01-09T17:24:14;8.20;99.90
35559;DHT22;21661;50.794;-1.066;2023-01-09T17:26:59;8.30;99.90
35559;DHT22;21661;50.794;-1.066;2023-01-09T17:29:44;8.20;99.90
35559;DHT22;21661;50.794;-1.066;2023-01-09T17:32:14;8.20;99.90
35559;DHT22;21661;50.794;-1.066;2023-01-09T17:34:40;8.20;99.90
35559;DHT22;21661;50.794;-1.066;2023-01-09T17:37:05;8.10;99.90
35559;DHT22;21661;50.794;-1.066;2023-01-09T17:39:33;8.10;99.90
35559;DHT22;21661;50.794;-1.066;2023-01-09T17:41:58;8.20;99.90
35559;DHT22;21661;50.794;-1.066;2023-01-09T17:44:26;8.10;99.90
35559;DHT22;21661;50.794;-1.066;2023-01-09T17:46:51;8.10;99.90
35559;DHT22;21661;50.794;-1.066;2023-01-09T17:49:20;8.10;99.90
35559;DHT22;21661;50.794;-1.066;2023-01-09T17:51:46;8.10;99.90
35559;DHT22;21661;50.794;-1.066;2023-01-09T17:54:12;8.10;99.90
35559;DHT22;21661;50.794;-1.066;2023-01-09T17:56:41;8.10;99.90
35559;DHT22;21661;50.794;-1.066;2023-01-09T17:59:13;8.10;99.90
35559;DHT22;21661;50.794;-1.066;2023-01-09T18:01:40;8.10;99.90
35559;DHT22;21661;50.794;-1.066;2023-01-09T18:04:06;8.10;99.90
35559;DHT22;21661;50.794;-1.066;2023-01-09T18:06:32;8.00;99.90
35559;DHT22;21661;50.794;-1.066;2023-01-09T18:08:58;8.00;99.90
35559;DHT22;21661;50.794;-1.066;2023-01-09T18:11:23;8.00;99.90
35559;DHT22;21661;50.794;-1.066;2023-01-09T18:13:50;8.00;99.90
35559;DHT22;21661;50.794;-1.066;2023-01-09T18:16:22;7.90;99.90